createdAt,value
2022-10-19T00:01:16.139Z,11.60
2022-10-19T00:03:45.270Z,11.50
2022-10-19T00:06:28.342Z,11.40
2022-10-19T00:09:01.040Z,11.50
2022-10-19T00:11:33.073Z,11.50
2022-10-19T00:14:04.705Z,11.50
2022-10-19T00:16:36.304Z,11.40
2022-10-19T00:19:08.124Z,11.30
2022-10-19T00:21:36.490Z,11.20
2022-10-19T00:24:03.840Z,11.20
2022-10-19T00:26:32.127Z,11.20
2022-10-19T00:29:02.204Z,11.10
2022-10-19T00:31:30.776Z,11.00
2022-10-19T00:34:00.056Z,11.00
2022-10-19T00:36:35.958Z,10.90
2022-10-19T00:39:06.521Z,10.80
2022-10-19T00:41:36.204Z,10.80
2022-10-19T00:44:15.952Z,10.80
2022-10-19T00:46:50.264Z,10.80
2022-10-19T00:49:24.546Z,10.80
2022-10-19T00:51:55.753Z,10.80
2022-10-19T00:54:25.230Z,10.80
2022-10-19T00:56:56.494Z,10.70
2022-10-19T00:59:26.804Z,10.70
2022-10-19T01:01:55.394Z,10.70
2022-10-19T01:04:25.028Z,10.70
2022-10-19T01:06:56.754Z,10.80
2022-10-19T01:09:25.099Z,10.90
2022-10-19T01:12:04.634Z,11.00
2022-10-19T01:14:59.775Z,11.00
2022-10-19T01:17:49.539Z,11.00
2022-10-19T01:20:29.831Z,11.00
2022-10-19T01:23:27.463Z,11.10
2022-10-19T01:26:31.589Z,11.20
2022-10-19T01:29:40.650Z,11.20
2022-10-19T01:32:16.428Z,11.20
2022-10-19T01:35:26.132Z,11.30
2022-10-19T01:38:13.457Z,11.30
2022-10-19T01:40:49.778Z,11.40
2022-10-19T01:43:32.135Z,11.40
2022-10-19T01:46:24.020Z,11.40
2022-10-19T01:49:39.593Z,11.50
2022-10-19T01:52:10.769Z,11.50
2022-10-19T01:54:46.478Z,11.50
2022-10-19T01:57:21.601Z,11.60
2022-10-19T01:59:51.203Z,11.50
2022-10-19T02:02:20.653Z,11.30
2022-10-19T02:04:50.420Z,11.30
2022-10-19T02:07:22.598Z,11.30
2022-10-19T02:09:49.581Z,11.30
2022-10-19T02:12:19.022Z,11.30
2022-10-19T02:14:51.570Z,11.20
2022-10-19T02:17:34.053Z,11.10
2022-10-19T02:20:03.001Z,11.00
2022-10-19T02:22:32.065Z,11.10
2022-10-19T02:25:00.110Z,11.00
2022-10-19T02:27:29.076Z,10.90
2022-10-19T02:29:57.079Z,10.70
2022-10-19T02:32:26.567Z,10.70
2022-10-19T02:34:54.408Z,10.90
2022-10-19T02:37:25.533Z,10.80
2022-10-19T02:39:53.629Z,10.90
2022-10-19T02:42:51.146Z,10.90
2022-10-19T02:46:13.922Z,10.90
2022-10-19T02:48:43.106Z,11.00
2022-10-19T02:51:31.078Z,11.10
2022-10-19T02:54:01.248Z,11.20
2022-10-19T02:56:32.102Z,11.20
2022-10-19T02:59:00.275Z,11.20
2022-10-19T03:01:29.601Z,11.30
2022-10-19T03:03:56.636Z,11.40
2022-10-19T03:06:23.703Z,11.50
2022-10-19T03:08:52.071Z,11.60
2022-10-19T03:11:19.671Z,11.60
2022-10-19T03:13:49.496Z,11.70
2022-10-19T03:16:17.682Z,11.60
2022-10-19T03:18:47.685Z,11.70
2022-10-19T03:21:14.594Z,11.70
2022-10-19T03:23:42.608Z,11.70
2022-10-19T03:26:14.023Z,11.70
2022-10-19T03:28:42.478Z,11.80
2022-10-19T03:31:09.695Z,11.80
2022-10-19T03:33:38.082Z,11.90
2022-10-19T03:36:34.568Z,12.00
2022-10-19T03:39:06.315Z,12.00
2022-10-19T03:41:36.262Z,12.00
2022-10-19T03:44:06.555Z,12.00
2022-10-19T03:46:34.283Z,12.00
2022-10-19T03:49:03.228Z,12.10
2022-10-19T03:51:31.840Z,12.10
2022-10-19T03:54:02.642Z,12.10
2022-10-19T03:56:31.176Z,12.20
2022-10-19T03:59:01.046Z,12.20
2022-10-19T04:01:32.690Z,12.20
2022-10-19T04:04:02.873Z,12.20
2022-10-19T04:06:39.749Z,12.30
2022-10-19T04:09:09.283Z,12.30
2022-10-19T04:11:37.459Z,12.30
2022-10-19T04:14:05.823Z,12.30
2022-10-19T04:16:34.442Z,12.30
2022-10-19T04:19:03.608Z,12.30
2022-10-19T04:21:33.192Z,12.30
2022-10-19T04:24:17.458Z,12.40
2022-10-19T04:26:47.099Z,12.40
2022-10-19T04:29:16.230Z,12.40
2022-10-19T04:31:45.199Z,12.40
2022-10-19T04:34:13.365Z,12.30
2022-10-19T04:36:40.642Z,12.40
2022-10-19T04:39:08.805Z,12.30
2022-10-19T04:41:38.549Z,12.30
2022-10-19T04:44:06.774Z,12.40
2022-10-19T04:46:35.049Z,12.40
2022-10-19T04:49:04.332Z,12.30
2022-10-19T04:51:31.770Z,12.30
2022-10-19T04:54:00.111Z,12.40
2022-10-19T04:56:29.243Z,12.50
2022-10-19T04:58:58.977Z,12.50
2022-10-19T05:01:29.827Z,12.60
2022-10-19T05:04:02.172Z,12.50
2022-10-19T05:06:31.528Z,12.50
2022-10-19T05:08:59.160Z,12.60
2022-10-19T05:11:27.770Z,12.60
2022-10-19T05:13:57.314Z,12.60
2022-10-19T05:16:28.774Z,12.60
2022-10-19T05:18:58.852Z,12.50
2022-10-19T05:21:33.397Z,12.60
2022-10-19T05:24:14.110Z,12.70
2022-10-19T05:26:50.215Z,12.60
2022-10-19T05:29:17.685Z,12.60
2022-10-19T05:31:46.301Z,12.60
2022-10-19T05:34:14.631Z,12.60
2022-10-19T05:36:42.653Z,12.60
2022-10-19T05:39:19.870Z,12.70
2022-10-19T05:41:48.116Z,12.70
2022-10-19T05:44:19.890Z,12.70
2022-10-19T05:46:48.906Z,12.60
2022-10-19T05:49:19.436Z,12.70
2022-10-19T05:51:47.792Z,12.70
2022-10-19T05:54:16.447Z,12.80
2022-10-19T05:56:44.660Z,12.80
2022-10-19T05:59:17.750Z,12.80
2022-10-19T06:01:45.813Z,12.90
2022-10-19T06:04:15.026Z,12.80
2022-10-19T06:06:46.068Z,12.70
2022-10-19T06:21:43.401Z,12.70
2022-10-19T06:25:10.270Z,13.40
2022-10-19T06:27:47.987Z,13.30
2022-10-19T06:30:43.720Z,13.20
2022-10-19T06:37:47.249Z,13.20
2022-10-19T06:44:37.898Z,13.30
2022-10-19T06:51:34.863Z,13.30
2022-10-19T06:54:15.261Z,13.40
2022-10-19T07:09:54.615Z,13.60
2022-10-19T07:16:58.269Z,13.70
2022-10-19T07:24:59.688Z,14.00
2022-10-19T07:28:35.325Z,14.10
2022-10-19T07:31:11.172Z,14.10
2022-10-19T07:34:04.175Z,14.10
2022-10-19T07:37:09.960Z,14.10
2022-10-19T07:40:20.435Z,14.00
2022-10-19T07:52:58.663Z,14.10
2022-10-19T07:55:27.189Z,14.30
2022-10-19T07:58:02.090Z,14.50
2022-10-19T08:01:08.369Z,14.40
2022-10-19T08:05:00.852Z,14.50
2022-10-19T08:11:35.837Z,14.60
2022-10-19T08:14:27.113Z,14.70
2022-10-19T08:17:16.810Z,14.70
2022-10-19T08:28:15.767Z,15.00
2022-10-19T08:30:44.743Z,15.10
2022-10-19T08:33:46.368Z,15.10
2022-10-19T08:40:36.633Z,15.20
2022-10-19T08:43:33.707Z,15.40
2022-10-19T08:49:48.112Z,15.50
2022-10-19T08:52:35.900Z,15.60
2022-10-19T08:55:19.784Z,15.70
2022-10-19T08:58:10.326Z,15.80
2022-10-19T09:00:59.003Z,15.90
2022-10-19T09:03:56.691Z,15.90
2022-10-19T09:11:00.606Z,15.70
2022-10-19T09:17:54.233Z,15.50
2022-10-19T09:20:35.360Z,15.30
2022-10-19T09:23:58.724Z,15.10
2022-10-19T09:26:42.781Z,15.20
2022-10-19T09:29:42.157Z,15.20
2022-10-19T09:32:44.747Z,15.20
2022-10-19T09:36:00.912Z,15.40
2022-10-19T09:38:33.951Z,15.50
2022-10-19T09:41:19.186Z,15.60
2022-10-19T09:43:54.229Z,15.80
2022-10-19T09:46:54.124Z,16.00
2022-10-19T09:50:03.081Z,15.90
2022-10-19T09:52:41.810Z,15.70
2022-10-19T09:55:53.895Z,15.80
2022-10-19T09:58:33.038Z,15.80
2022-10-19T10:01:43.068Z,15.80
2022-10-19T10:04:18.382Z,15.80
2022-10-19T10:07:04.555Z,16.10
2022-10-19T10:09:44.875Z,15.70
2022-10-19T10:12:23.724Z,15.60
2022-10-19T10:15:07.277Z,15.60
2022-10-19T10:17:38.454Z,15.50
2022-10-19T10:20:27.006Z,15.60
2022-10-19T10:23:02.904Z,15.70
2022-10-19T10:25:36.082Z,15.70
2022-10-19T10:28:23.175Z,15.70
2022-10-19T10:31:11.525Z,15.80
2022-10-19T10:33:44.935Z,15.90
2022-10-19T10:36:26.522Z,16.10
2022-10-19T10:39:05.543Z,16.30
2022-10-19T10:41:40.368Z,16.50
2022-10-19T10:44:19.311Z,16.50
2022-10-19T10:46:59.804Z,16.50
2022-10-19T10:49:36.299Z,16.60
2022-10-19T10:52:18.639Z,16.60
2022-10-19T10:55:26.558Z,16.70
2022-10-19T10:58:25.413Z,17.00
2022-10-19T11:00:57.146Z,17.00
2022-10-19T11:03:31.926Z,16.70
2022-10-19T11:06:02.673Z,16.70
2022-10-19T11:08:49.433Z,16.80
2022-10-19T11:11:26.509Z,16.80
2022-10-19T11:14:02.286Z,17.00
2022-10-19T11:16:41.963Z,17.00
2022-10-19T11:19:25.020Z,16.80
2022-10-19T11:21:57.882Z,16.80
2022-10-19T11:24:49.806Z,16.90
2022-10-19T11:27:26.143Z,17.00
2022-10-19T11:30:09.985Z,17.20
2022-10-19T11:32:55.510Z,17.10
2022-10-19T11:35:40.033Z,16.90
2022-10-19T11:38:30.499Z,16.80
2022-10-19T11:41:39.031Z,16.70
2022-10-19T11:44:33.604Z,16.60
2022-10-19T11:47:17.381Z,16.50
2022-10-19T11:50:01.488Z,16.60
2022-10-19T11:52:53.774Z,16.60
2022-10-19T11:55:53.590Z,16.80
2022-10-19T11:58:34.472Z,17.00
2022-10-19T12:01:39.229Z,17.20
2022-10-19T12:04:29.954Z,17.20
2022-10-19T12:07:27.229Z,17.10
2022-10-19T12:10:17.861Z,17.30
2022-10-19T12:12:50.826Z,17.50
2022-10-19T12:15:26.227Z,17.90
2022-10-19T12:17:59.253Z,17.90
2022-10-19T12:20:50.940Z,18.00
2022-10-19T12:23:48.564Z,18.00
2022-10-19T12:26:21.283Z,17.80
2022-10-19T12:28:56.851Z,17.80
2022-10-19T12:31:29.576Z,17.60
2022-10-19T12:34:36.095Z,17.50
2022-10-19T12:37:02.930Z,17.60
2022-10-19T12:39:54.653Z,17.60
2022-10-19T12:42:51.573Z,17.60
2022-10-19T12:46:11.774Z,17.50
2022-10-19T12:48:39.286Z,17.70
2022-10-19T12:51:13.596Z,17.50
2022-10-19T12:53:48.879Z,17.50
2022-10-19T12:56:26.046Z,17.40
2022-10-19T12:59:01.249Z,17.20
2022-10-19T13:01:34.905Z,17.20
2022-10-19T13:04:24.708Z,17.20
2022-10-19T13:07:04.715Z,17.30
2022-10-19T13:09:45.725Z,17.40
2022-10-19T13:12:21.595Z,17.40
2022-10-19T13:15:02.022Z,17.40
2022-10-19T13:17:38.186Z,17.40
2022-10-19T13:20:17.312Z,17.40
2022-10-19T13:22:59.977Z,17.20
2022-10-19T13:25:36.167Z,17.20
2022-10-19T13:28:17.895Z,17.00
2022-10-19T13:30:47.841Z,16.90
2022-10-19T13:33:30.388Z,16.80
2022-10-19T13:36:07.850Z,16.80
2022-10-19T13:38:59.543Z,16.80
2022-10-19T13:41:44.538Z,16.70
2022-10-19T13:44:21.895Z,16.80
2022-10-19T13:47:12.164Z,16.80
2022-10-19T13:50:07.998Z,16.70
2022-10-19T13:53:06.871Z,16.80
2022-10-19T13:56:13.070Z,16.70
2022-10-19T13:59:17.892Z,16.70
2022-10-19T14:02:34.356Z,16.70
2022-10-19T14:05:39.134Z,16.60
2022-10-19T14:08:27.139Z,16.50
2022-10-19T14:11:24.772Z,16.50
2022-10-19T14:14:10.629Z,16.50
2022-10-19T14:17:01.172Z,16.50
2022-10-19T14:19:51.464Z,16.50
2022-10-19T14:22:31.051Z,16.60
2022-10-19T14:25:13.744Z,16.60
2022-10-19T14:27:42.212Z,16.70
2022-10-19T14:30:31.440Z,16.70
2022-10-19T14:33:02.634Z,16.70
2022-10-19T14:35:39.452Z,16.60
2022-10-19T14:38:09.374Z,16.80
2022-10-19T14:40:41.960Z,16.60
2022-10-19T14:43:29.791Z,16.60
2022-10-19T14:46:16.417Z,16.50
2022-10-19T14:48:49.609Z,16.30
2022-10-19T14:51:22.975Z,16.40
2022-10-19T14:54:18.679Z,16.40
2022-10-19T14:57:09.183Z,16.20
2022-10-19T14:59:48.111Z,16.20
2022-10-19T15:02:33.695Z,16.20
2022-10-19T15:05:05.127Z,16.10
2022-10-19T15:08:22.154Z,16.20
2022-10-19T15:10:51.914Z,16.30
2022-10-19T15:13:35.744Z,16.20
2022-10-19T15:16:05.432Z,16.30
2022-10-19T15:18:49.203Z,16.30
2022-10-19T15:21:21.988Z,16.30
2022-10-19T15:23:52.777Z,16.20
2022-10-19T15:26:29.110Z,16.20
2022-10-19T15:29:27.897Z,16.10
2022-10-19T15:31:58.761Z,16.00
2022-10-19T15:34:31.028Z,16.00
2022-10-19T15:37:02.224Z,16.00
2022-10-19T15:39:39.841Z,16.00
2022-10-19T15:42:33.224Z,15.80
2022-10-19T15:45:02.864Z,15.70
2022-10-19T15:47:31.364Z,15.60
2022-10-19T15:50:02.990Z,15.50
2022-10-19T15:52:34.243Z,15.50
2022-10-19T15:55:02.487Z,15.40
2022-10-19T15:57:35.902Z,15.40
2022-10-19T16:00:15.889Z,15.30
2022-10-19T16:02:44.738Z,15.20
2022-10-19T16:05:16.192Z,15.20
2022-10-19T16:07:44.241Z,15.20
2022-10-19T16:10:22.475Z,15.10
2022-10-19T16:12:50.647Z,15.20
2022-10-19T16:15:24.169Z,15.10
2022-10-19T16:17:58.361Z,15.10
2022-10-19T16:20:29.042Z,15.10
2022-10-19T16:22:57.959Z,15.10
2022-10-19T16:25:25.963Z,15.10
2022-10-19T16:27:54.059Z,15.10
2022-10-19T16:30:22.431Z,15.00
2022-10-19T16:32:50.809Z,15.00
2022-10-19T16:35:18.731Z,14.90
2022-10-19T16:37:46.674Z,14.90
2022-10-19T16:40:15.113Z,14.90
2022-10-19T16:42:45.565Z,14.90
2022-10-19T16:45:13.702Z,14.90
2022-10-19T16:47:42.045Z,14.90
2022-10-19T16:50:11.422Z,14.90
2022-10-19T16:52:39.851Z,14.80
2022-10-19T16:55:08.776Z,14.70
2022-10-19T16:57:37.259Z,14.70
2022-10-19T17:00:09.783Z,14.60
2022-10-19T17:02:39.858Z,14.60
2022-10-19T17:05:11.223Z,14.60
2022-10-19T17:07:39.189Z,14.60
2022-10-19T17:10:07.472Z,14.50
2022-10-19T17:12:36.593Z,14.50
2022-10-19T17:17:58.043Z,14.50
2022-10-19T17:20:26.457Z,14.50
2022-10-19T17:22:54.778Z,14.50
2022-10-19T17:25:23.081Z,14.50
2022-10-19T17:27:52.956Z,14.50
2022-10-19T17:30:21.037Z,14.50
2022-10-19T17:32:50.315Z,14.50
2022-10-19T17:35:21.111Z,14.50
2022-10-19T17:37:49.945Z,14.40
2022-10-19T17:40:18.329Z,14.40
2022-10-19T17:42:46.397Z,14.30
2022-10-19T17:45:14.631Z,14.30
2022-10-19T17:47:41.637Z,14.20
2022-10-19T17:50:10.477Z,14.20
2022-10-19T17:52:38.543Z,14.20
2022-10-19T17:55:12.065Z,14.20
2022-10-19T17:57:42.672Z,14.20
2022-10-19T18:00:11.499Z,14.20
2022-10-19T18:02:44.564Z,14.20
2022-10-19T18:05:13.119Z,14.20
2022-10-19T18:07:42.993Z,14.20
2022-10-19T18:10:11.385Z,14.20
2022-10-19T18:12:45.198Z,14.10
2022-10-19T18:15:13.146Z,14.20
2022-10-19T18:17:40.615Z,14.10
2022-10-19T18:20:09.892Z,14.20
2022-10-19T18:25:09.433Z,14.10
2022-10-19T18:27:36.931Z,14.10
2022-10-19T18:30:05.658Z,14.10
2022-10-19T18:32:34.409Z,14.10
2022-10-19T18:35:02.954Z,14.00
2022-10-19T18:37:30.628Z,14.10
2022-10-19T18:39:59.176Z,14.00
2022-10-19T18:42:29.174Z,14.10
2022-10-19T18:44:57.869Z,14.10
2022-10-19T18:47:25.840Z,14.00
2022-10-19T18:49:55.146Z,14.10
2022-10-19T18:52:23.841Z,14.10
2022-10-19T18:54:50.925Z,14.00
2022-10-19T18:57:18.905Z,14.00
2022-10-19T18:59:47.915Z,14.00
2022-10-19T19:02:22.279Z,13.90
2022-10-19T19:04:51.173Z,13.90
2022-10-19T19:07:23.331Z,13.90
2022-10-19T19:09:52.118Z,14.00
2022-10-19T19:12:28.159Z,14.00
2022-10-19T19:14:55.655Z,13.90
2022-10-19T19:17:23.714Z,13.90
2022-10-19T19:19:54.123Z,13.90
2022-10-19T19:22:20.953Z,13.80
2022-10-19T19:24:50.216Z,13.80
2022-10-19T19:27:18.479Z,13.80
2022-10-19T19:29:46.734Z,13.80
2022-10-19T19:32:17.542Z,13.80
2022-10-19T19:34:45.763Z,13.80
2022-10-19T19:37:14.059Z,13.80
2022-10-19T19:39:41.611Z,13.80
2022-10-19T19:42:12.189Z,13.80
2022-10-19T19:44:40.168Z,13.80
2022-10-19T19:47:09.214Z,13.80
2022-10-19T19:49:38.386Z,13.80
2022-10-19T19:52:06.669Z,13.80
2022-10-19T19:54:34.758Z,13.90
2022-10-19T19:57:02.942Z,13.80
2022-10-19T19:59:31.154Z,13.80
2022-10-19T20:01:59.645Z,13.80
2022-10-19T20:04:26.684Z,13.80
2022-10-19T20:06:54.699Z,13.80
2022-10-19T20:09:23.195Z,13.70
2022-10-19T20:11:50.712Z,13.80
2022-10-19T20:14:20.805Z,13.70
2022-10-19T20:16:47.619Z,13.70
2022-10-19T20:19:16.200Z,13.70
2022-10-19T20:21:43.087Z,13.60
2022-10-19T20:24:12.128Z,13.70
2022-10-19T20:26:39.870Z,13.70
2022-10-19T20:29:07.772Z,13.70
2022-10-19T20:31:39.779Z,13.70
2022-10-19T20:34:10.946Z,13.60
2022-10-19T20:36:39.274Z,13.60
2022-10-19T20:39:06.992Z,13.60
2022-10-19T20:41:35.256Z,13.60
2022-10-19T20:44:03.285Z,13.60
2022-10-19T20:46:31.335Z,13.60
2022-10-19T20:49:02.219Z,13.60
2022-10-19T20:51:32.621Z,13.70
2022-10-19T20:54:02.596Z,13.60
2022-10-19T20:56:34.952Z,13.60
2022-10-19T20:59:05.608Z,13.60
2022-10-19T21:01:35.729Z,13.50
2022-10-19T21:04:05.157Z,13.50
2022-10-19T21:06:34.219Z,13.50
2022-10-19T21:09:02.252Z,13.50
2022-10-19T21:11:33.467Z,13.50
2022-10-19T21:14:07.748Z,13.60
2022-10-19T21:16:37.612Z,13.50
2022-10-19T21:19:14.261Z,13.50
2022-10-19T21:21:44.193Z,13.70
2022-10-19T21:24:15.876Z,13.60
2022-10-19T21:26:43.175Z,13.50
2022-10-19T21:29:13.497Z,13.50
2022-10-19T21:31:46.455Z,13.50
2022-10-19T21:34:22.003Z,13.50
2022-10-19T21:36:50.657Z,13.50
2022-10-19T21:39:18.069Z,13.60
2022-10-19T21:41:47.571Z,13.50
2022-10-19T21:44:16.494Z,13.50
2022-10-19T21:46:47.472Z,13.60
2022-10-19T21:49:15.295Z,13.50
2022-10-19T21:51:52.108Z,13.50
2022-10-19T21:54:22.091Z,13.50
2022-10-19T21:56:50.149Z,13.50
2022-10-19T21:59:18.235Z,13.50
2022-10-19T22:01:50.233Z,13.50
2022-10-19T22:04:18.416Z,13.50
2022-10-19T22:06:46.561Z,13.50
2022-10-19T22:09:19.218Z,13.50
2022-10-19T22:11:48.962Z,13.50
2022-10-19T22:14:17.786Z,13.50
2022-10-19T22:16:44.885Z,13.60
2022-10-19T22:19:13.713Z,13.60
2022-10-19T22:21:40.974Z,13.60
2022-10-19T22:24:12.730Z,13.60
2022-10-19T22:26:44.925Z,13.60
2022-10-19T22:29:13.059Z,13.60
2022-10-19T22:31:41.018Z,13.60
2022-10-19T22:34:14.953Z,13.70
2022-10-19T22:36:42.395Z,13.70
2022-10-19T22:39:11.034Z,13.60
2022-10-19T22:41:38.806Z,13.60
2022-10-19T22:44:06.798Z,13.70
2022-10-19T22:46:33.803Z,13.70
2022-10-19T22:49:02.512Z,13.60
2022-10-19T22:51:29.952Z,13.70
2022-10-19T22:53:57.834Z,13.70
2022-10-19T22:56:24.858Z,13.70
2022-10-19T22:58:53.149Z,13.70
2022-10-19T23:01:20.774Z,13.70
2022-10-19T23:03:48.915Z,13.60
2022-10-19T23:06:16.227Z,13.60
2022-10-19T23:08:45.187Z,13.60
2022-10-19T23:11:13.551Z,13.50
2022-10-19T23:13:42.462Z,13.70
2022-10-19T23:16:10.178Z,13.70
2022-10-19T23:18:40.035Z,13.70
2022-10-19T23:21:12.849Z,13.70
2022-10-19T23:23:40.603Z,13.70
2022-10-19T23:26:14.674Z,13.70
2022-10-19T23:28:44.400Z,13.70
2022-10-19T23:31:17.008Z,13.70
2022-10-19T23:33:45.647Z,13.70
2022-10-19T23:36:20.273Z,13.60
2022-10-19T23:38:49.919Z,13.40
2022-10-19T23:41:19.154Z,13.40
2022-10-19T23:43:46.811Z,13.30
2022-10-19T23:46:15.169Z,13.20
2022-10-19T23:48:43.409Z,13.10
2022-10-19T23:51:17.977Z,12.90
2022-10-19T23:53:47.484Z,12.90
2022-10-19T23:56:24.205Z,12.80
2022-10-19T23:58:52.725Z,12.70
